Time;durP1;ratioP1;P1;durP2;ratioP2;P2;SDS_P1;SDS_P2;PMS_P1;PMS_P2;Temp;Humidity;BMP_temperature;BMP_pressure;BME280_temperature;BME280_humidity;BME280_pressure;Samples;Min_cycle;Max_cycle;Signal;HPM_P1;HPM_P2
2021/12/06 00:01:16;;;;;;;11.30;6.30;;;4.60;99.90;;;;;;5053514;28;19967;-77
2021/12/06 00:04:02;;;;;;;11.77;7.05;;;4.50;99.90;;;;;;5051561;28;20029;-76
2021/12/06 00:06:29;;;;;;;9.63;6.05;;;4.50;99.90;;;;;;5052249;28;20025;-78
2021/12/06 00:08:55;;;;;;;9.93;7.35;;;4.40;99.90;;;;;;5056843;28;20033;-79
2021/12/06 00:11:22;;;;;;;;;;;4.30;99.90;;;;;;5058413;28;20086;-77
2021/12/06 00:13:49;;;;;;;11.70;6.20;;;4.20;99.90;;;;;;5050646;28;19940;-77
2021/12/06 00:16:20;;;;;;;11.77;7.35;;;4.20;99.90;;;;;;5052113;28;20497;-77
2021/12/06 00:18:47;;;;;;;12.25;7.22;;;4.20;99.90;;;;;;5052237;28;20040;-77
2021/12/06 00:21:13;;;;;;;12.52;7.20;;;4.20;99.90;;;;;;5050669;28;20017;-78
2021/12/06 00:23:39;;;;;;;;;;;4.10;99.90;;;;;;5052354;28;20035;-77
2021/12/06 00:26:05;;;;;;;11.27;7.30;;;4.20;99.90;;;;;;5051353;28;19912;-77
2021/12/06 00:28:32;;;;;;;9.98;6.32;;;4.10;99.90;;;;;;5052821;28;20058;-77
2021/12/06 00:30:57;;;;;;;;;;;4.10;99.90;;;;;;5050748;28;20029;-77
2021/12/06 00:33:25;;;;;;;8.35;5.03;;;4.10;99.90;;;;;;5052571;28;19920;-77
2021/12/06 00:35:51;;;;;;;7.47;4.57;;;4.10;99.90;;;;;;5052410;28;20033;-77
2021/12/06 00:38:17;;;;;;;6.22;4.10;;;4.20;99.90;;;;;;5051365;28;20396;-77
2021/12/06 00:40:46;;;;;;;;;;;4.10;99.90;;;;;;5051633;28;20139;-77
2021/12/06 00:43:14;;;;;;;6.47;4.20;;;4.10;99.90;;;;;;5053373;28;19908;-76
2021/12/06 00:45:40;;;;;;;8.63;3.65;;;4.10;99.90;;;;;;5051747;28;20041;-77
2021/12/06 00:48:06;;;;;;;6.93;4.78;;;4.20;99.90;;;;;;5053018;28;20025;-77
2021/12/06 00:50:33;;;;;;;;;;;4.10;99.90;;;;;;5053161;28;20055;-77
2021/12/06 00:53:00;;;;;;;6.78;3.47;;;4.30;99.90;;;;;;5051176;28;19950;-77
2021/12/06 00:55:25;;;;;;;;;;;4.20;99.90;;;;;;5052118;28;20044;-77
2021/12/06 00:57:53;;;;;;;5.88;3.50;;;4.30;99.90;;;;;;5051441;28;19908;-77
2021/12/06 01:00:35;;;;;;;5.05;3.67;;;4.20;99.90;;;;;;5051961;28;20051;-77
2021/12/06 01:03:03;;;;;;;7.95;3.70;;;4.20;99.90;;;;;;5051445;28;20148;-77
2021/12/06 01:05:28;;;;;;;6.07;3.38;;;4.20;99.90;;;;;;5053583;28;20473;-76
2021/12/06 01:07:54;;;;;;;;;;;4.20;99.90;;;;;;5052960;28;20517;-78
2021/12/06 01:10:21;;;;;;;5.93;2.75;;;4.20;99.90;;;;;;5053568;28;19960;-77
2021/12/06 01:12:47;;;;;;;5.88;3.33;;;4.30;99.90;;;;;;5052947;28;20037;-77
2021/12/06 01:15:13;;;;;;;;;;;4.30;99.90;;;;;;5053701;28;20035;-78
2021/12/06 01:17:38;;;;;;;5.50;2.92;;;4.30;99.90;;;;;;5052133;28;19968;-77
2021/12/06 01:20:08;;;;;;;5.05;2.75;;;4.20;99.90;;;;;;5052929;28;20033;-77
2021/12/06 01:23:00;;;;;;;4.03;2.72;;;4.30;99.90;;;;;;5053201;28;20033;-77
2021/12/06 01:25:31;;;;;;;4.53;2.85;;;4.20;99.90;;;;;;5055217;28;20458;-78
2021/12/06 01:40:52;;;;;;;4.28;2.67;;;4.30;99.90;;;;;;5049720;28;20088;-77
2021/12/06 01:43:17;;;;;;;;;;;4.30;99.90;;;;;;5049942;28;20063;-77
2021/12/06 01:45:43;;;;;;;4.13;2.63;;;4.20;99.90;;;;;;5050080;28;20478;-77
2021/12/06 01:48:08;;;;;;;;;;;4.20;99.90;;;;;;5048949;28;20025;-77
2021/12/06 01:50:34;;;;;;;4.10;2.63;;;4.10;99.90;;;;;;5048106;28;20490;-78
2021/12/06 01:53:02;;;;;;;;;;;4.10;99.90;;;;;;5049017;28;20032;-77
2021/12/06 01:55:32;;;;;;;5.13;3.15;;;4.10;99.90;;;;;;5048016;28;19957;-78
2021/12/06 01:58:00;;;;;;;3.70;2.25;;;4.10;99.90;;;;;;5048228;28;20033;-78
2021/12/06 02:00:37;;;;;;;6.07;2.58;;;4.10;99.90;;;;;;5049804;28;20045;-77
2021/12/06 02:03:03;;;;;;;6.97;4.03;;;4.00;99.90;;;;;;5049631;28;20493;-77
2021/12/06 02:05:29;;;;;;;7.78;3.75;;;3.90;99.90;;;;;;5047926;28;20091;-77
2021/12/06 02:07:55;;;;;;;;;;;3.90;99.90;;;;;;5049186;28;20052;-77
2021/12/06 02:10:22;;;;;;;8.05;4.15;;;3.90;99.90;;;;;;5048585;28;19928;-78
2021/12/06 02:12:51;;;;;;;19.52;9.15;;;4.00;99.90;;;;;;5048603;28;20607;-77
2021/12/06 02:15:36;;;;;;;20.63;11.82;;;4.00;99.90;;;;;;5050269;28;20095;-78
2021/12/06 02:18:11;;;;;;;5.65;3.33;;;4.10;99.90;;;;;;5048862;28;20162;-77
2021/12/06 02:20:46;;;;;;;4.22;2.67;;;4.20;99.90;;;;;;5051392;28;20032;-77
2021/12/06 02:23:13;;;;;;;4.47;2.95;;;4.30;99.90;;;;;;5053508;28;20047;-76
2021/12/06 02:25:38;;;;;;;3.83;2.53;;;4.20;99.90;;;;;;5052930;28;20179;-77
2021/12/06 02:28:04;;;;;;;;;;;4.20;99.90;;;;;;5055262;28;20540;-77
2021/12/06 02:30:30;;;;;;;5.82;3.47;;;4.20;99.90;;;;;;5053560;28;19917;-78
2021/12/06 02:32:56;;;;;;;;;;;4.20;99.90;;;;;;5054435;28;20505;-77
2021/12/06 02:35:23;;;;;;;3.97;2.42;;;4.10;99.90;;;;;;5055458;28;19912;-77
2021/12/06 02:37:50;;;;;;;4.25;2.42;;;4.10;99.90;;;;;;5055414;28;20032;-77
2021/12/06 02:40:20;;;;;;;4.10;2.58;;;4.10;99.90;;;;;;5056010;28;20029;-77
2021/12/06 02:42:47;;;;;;;5.45;2.97;;;4.10;99.90;;;;;;5053756;28;20033;-77
2021/12/06 02:45:15;;;;;;;4.20;2.67;;;4.00;99.90;;;;;;5054118;28;20599;-78
2021/12/06 02:47:42;;;;;;;5.50;3.20;;;4.00;99.90;;;;;;5055752;28;20091;-77
2021/12/06 02:50:10;;;;;;;5.20;2.65;;;3.90;99.90;;;;;;5056316;28;20032;-78
2021/12/06 02:52:37;;;;;;;3.08;2.00;;;3.80;99.90;;;;;;5054315;28;20070;-77
2021/12/06 02:55:22;;;;;;;4.47;2.38;;;3.80;99.90;;;;;;5054530;28;20130;-78
2021/12/06 02:57:53;;;;;;;4.32;2.47;;;3.80;99.90;;;;;;5056521;28;20393;-77
2021/12/06 03:00:19;;;;;;;5.47;3.33;;;3.80;99.90;;;;;;5056842;28;20049;-77
2021/12/06 03:02:45;;;;;;;;;;;3.80;99.90;;;;;;5057105;28;20013;-77
2021/12/06 03:05:10;;;;;;;7.45;4.25;;;3.80;99.90;;;;;;5058699;28;20389;-76
2021/12/06 03:07:37;;;;;;;;;;;3.70;99.90;;;;;;5053205;28;20577;-77
2021/12/06 03:10:06;;;;;;;6.57;4.20;;;3.70;99.90;;;;;;5052274;28;19916;-76
2021/12/06 03:12:32;;;;;;;5.03;3.40;;;3.70;99.90;;;;;;5051691;28;20029;-77
2021/12/06 03:14:58;;;;;;;;;;;3.70;99.90;;;;;;5052404;28;20046;-77
2021/12/06 03:17:28;;;;;;;2.65;1.70;;;3.60;99.90;;;;;;5053076;28;19912;-77
2021/12/06 03:19:54;;;;;;;6.78;1.88;;;3.60;99.90;;;;;;5051951;28;20478;-77
2021/12/06 03:22:20;;;;;;;2.78;1.55;;;3.60;99.90;;;;;;5052066;28;20378;-77
2021/12/06 03:24:46;;;;;;;;;;;3.60;99.90;;;;;;5052249;28;20039;-78
2021/12/06 03:27:13;;;;;;;2.40;1.20;;;3.60;99.90;;;;;;5053015;28;19912;-77
2021/12/06 03:29:39;;;;;;;2.00;0.93;;;3.60;99.90;;;;;;5053317;28;20409;-77
2021/12/06 03:32:05;;;;;;;;;;;3.60;99.90;;;;;;5052546;28;20021;-77
2021/12/06 03:34:31;;;;;;;1.77;0.73;;;3.60;99.90;;;;;;5052725;28;19987;-77
2021/12/06 03:37:01;;;;;;;1.48;0.70;;;3.60;99.90;;;;;;5054077;28;20509;-77
2021/12/06 03:39:31;;;;;;;1.35;0.60;;;3.60;99.90;;;;;;5052639;28;20120;-77
2021/12/06 03:42:00;;;;;;;1.38;0.85;;;3.60;99.90;;;;;;5053889;28;20151;-77
2021/12/06 03:44:27;;;;;;;2.03;1.20;;;3.50;99.90;;;;;;5052391;28;20059;-77
2021/12/06 03:46:58;;;;;;;6.63;2.50;;;3.60;99.90;;;;;;5053643;28;20062;-77
2021/12/06 03:49:25;;;;;;;6.80;4.43;;;3.60;99.90;;;;;;5053439;28;20416;-77
2021/12/06 03:51:50;;;;;;;;;;;3.50;99.90;;;;;;5053702;28;20091;-76
2021/12/06 03:54:20;;;;;;;6.50;4.47;;;3.50;99.90;;;;;;5054771;28;20067;-76
2021/12/06 03:56:47;;;;;;;8.57;5.50;;;3.50;99.90;;;;;;5053653;28;20070;-76
2021/12/06 03:59:12;;;;;;;7.70;5.25;;;3.50;99.90;;;;;;5052919;28;20028;-77
2021/12/06 04:01:38;;;;;;;;;;;3.50;99.90;;;;;;5052893;28;20057;-77
2021/12/06 04:04:05;;;;;;;7.70;4.85;;;3.50;99.90;;;;;;5053731;28;20397;-76
2021/12/06 04:06:32;;;;;;;6.95;4.47;;;3.40;99.90;;;;;;5052784;28;20051;-76
2021/12/06 04:08:57;;;;;;;7.00;4.65;;;3.50;99.90;;;;;;5052789;28;20503;-77
2021/12/06 04:11:23;;;;;;;;;;;3.40;99.90;;;;;;5055080;28;20057;-77
2021/12/06 04:13:50;;;;;;;5.47;3.33;;;3.40;99.90;;;;;;5054181;28;19904;-76
2021/12/06 04:16:16;;;;;;;4.97;2.83;;;3.50;99.90;;;;;;5054906;28;20032;-77
2021/12/06 04:18:42;;;;;;;3.70;2.05;;;3.50;99.90;;;;;;5055383;28;20032;-77
2021/12/06 04:21:09;;;;;;;4.82;2.67;;;3.50;99.90;;;;;;5054015;28;20131;-77
2021/12/06 04:23:36;;;;;;;6.40;3.75;;;3.50;99.90;;;;;;5055436;28;20027;-77
2021/12/06 04:26:03;;;;;;;6.07;3.00;;;3.50;99.90;;;;;;5054736;28;20032;-78
2021/12/06 04:28:31;;;;;;;6.70;3.10;;;3.50;99.90;;;;;;5055865;28;20033;-77
2021/12/06 04:30:57;;;;;;;6.90;4.25;;;3.50;99.90;;;;;;5055777;28;20033;-77
2021/12/06 04:33:23;;;;;;;;;;;3.50;99.90;;;;;;5056543;28;20060;-77
2021/12/06 04:35:50;;;;;;;5.30;3.03;;;3.50;99.90;;;;;;5050284;28;19905;-77
2021/12/06 04:38:15;;;;;;;;;;;3.50;99.90;;;;;;5049482;28;20029;-76
2021/12/06 04:40:41;;;;;;;6.85;2.75;;;3.50;99.90;;;;;;5048849;28;19913;-78
2021/12/06 04:43:08;;;;;;;;;;;3.50;99.90;;;;;;5048809;28;20029;-76
2021/12/06 04:45:34;;;;;;;;;;;3.50;99.90;;;;;;5049022;28;19913;-78
2021/12/06 04:48:00;;;;;;;2.63;1.38;;;3.40;99.90;;;;;;5048528;28;19954;-77
2021/12/06 04:50:31;;;;;;;4.03;1.88;;;3.50;99.90;;;;;;5048631;28;20032;-77
2021/12/06 04:52:59;;;;;;;2.50;1.45;;;3.40;99.90;;;;;;5049870;28;20517;-77
2021/12/06 04:55:39;;;;;;;2.33;1.30;;;3.50;99.90;;;;;;5048769;28;20029;-76
2021/12/06 04:58:06;;;;;;;3.75;1.90;;;3.50;99.90;;;;;;5048260;28;20074;-77
2021/12/06 05:01:24;;;;;;;3.42;2.40;;;3.50;99.90;;;;;;5049593;28;20498;-77
2021/12/06 05:03:51;;;;;;;3.30;2.20;;;3.50;99.90;;;;;;5049100;28;20095;-77
2021/12/06 05:06:22;;;;;;;5.80;3.72;;;3.50;99.90;;;;;;5048572;28;20033;-77
2021/12/06 05:08:51;;;;;;;4.60;2.95;;;3.50;99.90;;;;;;5048378;28;20025;-77
2021/12/06 05:11:19;;;;;;;4.63;3.40;;;3.50;99.90;;;;;;5050565;28;20106;-77
2021/12/06 05:13:46;;;;;;;6.72;3.67;;;3.50;99.90;;;;;;5049634;28;20412;-77
2021/12/06 05:16:12;;;;;;;6.28;4.18;;;3.50;99.90;;;;;;5048666;28;20116;-77
2021/12/06 05:18:38;;;;;;;;;;;3.50;99.90;;;;;;5050522;28;20047;-77
2021/12/06 05:21:03;;;;;;;5.30;3.38;;;3.40;99.90;;;;;;5049682;28;19909;-77
2021/12/06 05:23:29;;;;;;;;;;;3.40;99.90;;;;;;5048800;28;20032;-78
2021/12/06 05:25:55;;;;;;;5.18;3.58;;;3.40;99.90;;;;;;5048397;28;20043;-77
2021/12/06 05:28:27;;;;;;;;;;;3.40;99.90;;;;;;5050165;28;20485;-77
2021/12/06 05:30:56;;;;;;;7.32;4.13;;;3.50;99.90;;;;;;5050189;28;19911;-77
2021/12/06 05:33:29;;;;;;;6.35;4.30;;;3.40;99.90;;;;;;5049204;28;20087;-77
2021/12/06 05:36:02;;;;;;;4.60;3.25;;;3.40;99.90;;;;;;5048635;28;20036;-77
2021/12/06 05:38:29;;;;;;;5.50;3.05;;;3.40;99.90;;;;;;5050194;28;20021;-77
2021/12/06 05:40:55;;;;;;;4.38;2.80;;;3.50;99.90;;;;;;5049728;28;20031;-76
2021/12/06 05:43:22;;;;;;;5.68;2.85;;;3.40;99.90;;;;;;5049404;28;20072;-76
2021/12/06 05:45:49;;;;;;;6.22;3.33;;;3.50;99.90;;;;;;5049918;28;20039;-76
2021/12/06 05:48:15;;;;;;;7.38;4.93;;;3.40;99.90;;;;;;5050480;28;20048;-77
2021/12/06 05:50:40;;;;;;;;;;;3.40;99.90;;;;;;5048650;28;20098;-76
2021/12/06 05:53:06;;;;;;;14.25;8.07;;;3.40;99.90;;;;;;5049682;28;20380;-75
2021/12/06 05:55:32;;;;;;;;;;;3.40;99.90;;;;;;5049634;28;20392;-76
2021/12/06 05:58:04;;;;;;;6.10;3.45;;;3.40;99.90;;;;;;5053434;28;20643;-76
2021/12/06 06:00:32;;;;;;;5.50;3.47;;;3.30;99.90;;;;;;5053114;28;20139;-76
2021/12/06 06:02:59;;;;;;;14.52;8.20;;;3.30;99.90;;;;;;5052208;28;20389;-76
2021/12/06 06:05:25;;;;;;;20.67;11.00;;;3.30;99.90;;;;;;5053874;28;20041;-76
2021/12/06 06:07:54;;;;;;;;;;;3.30;99.90;;;;;;5052951;28;20040;-77
2021/12/06 06:10:19;;;;;;;13.35;7.15;;;3.30;99.90;;;;;;5052234;28;19931;-77
2021/12/06 06:12:48;;;;;;;;;;;3.30;99.90;;;;;;5054017;28;20503;-76
2021/12/06 06:15:13;;;;;;;9.20;5.13;;;3.30;99.90;;;;;;5053860;28;19916;-76
2021/12/06 06:17:43;;;;;;;;;;;3.30;99.90;;;;;;5052940;28;20025;-76
2021/12/06 06:20:29;;;;;;;8.73;5.22;;;3.30;99.90;;;;;;5052796;28;20038;-76
2021/12/06 06:22:54;;;;;;;8.43;5.75;;;3.30;99.90;;;;;;5054987;28;20033;-77
2021/12/06 06:25:20;;;;;;;12.95;8.63;;;3.30;99.90;;;;;;5055203;28;20498;-77
2021/12/06 06:27:46;;;;;;;22.77;14.73;;;3.30;99.90;;;;;;5054265;28;20025;-77
2021/12/06 06:30:13;;;;;;;;;;;3.20;99.90;;;;;;5054217;28;20147;-78
2021/12/06 06:32:39;;;;;;;30.73;18.73;;;3.30;99.90;;;;;;5053541;28;19909;-78
2021/12/06 06:35:05;;;;;;;;;;;3.20;99.90;;;;;;5055343;28;20025;-77
2021/12/06 06:37:31;;;;;;;26.25;14.07;;;3.30;99.90;;;;;;5053071;28;19911;-77
2021/12/06 06:39:56;;;;;;;;;;;3.30;99.90;;;;;;5055694;28;20090;-77
2021/12/06 06:42:23;;;;;;;20.48;13.27;;;3.30;99.90;;;;;;5054939;28;19939;-77
2021/12/06 06:44:50;;;;;;;30.35;17.73;;;3.30;99.90;;;;;;5054913;28;20041;-76
2021/12/06 06:47:16;;;;;;;32.20;19.15;;;3.30;99.90;;;;;;5052992;28;20028;-77
2021/12/06 06:49:41;;;;;;;;;;;3.30;99.90;;;;;;5052294;28;20040;-77
2021/12/06 06:52:07;;;;;;;24.98;15.73;;;3.30;99.90;;;;;;5053910;28;19905;-77
2021/12/06 06:54:33;;;;;;;;;;;3.30;99.90;;;;;;5056535;28;20084;-78
2021/12/06 06:56:58;;;;;;;17.48;10.25;;;3.30;99.90;;;;;;5054714;28;19912;-77
2021/12/06 06:59:24;;;;;;;;;;;3.30;99.90;;;;;;5055719;28;20024;-77
2021/12/06 07:01:50;;;;;;;8.35;4.10;;;3.30;99.90;;;;;;5056009;28;19917;-77
2021/12/06 07:04:16;;;;;;;5.30;2.90;;;3.40;99.90;;;;;;5056062;28;20040;-77
2021/12/06 07:06:42;;;;;;;7.57;4.40;;;3.30;99.90;;;;;;5057527;28;20532;-77
2021/12/06 07:09:08;;;;;;;6.97;4.50;;;3.30;99.90;;;;;;5057801;28;20036;-76
2021/12/06 07:11:34;;;;;;;7.90;4.63;;;3.30;99.90;;;;;;5051838;28;20075;-77
2021/12/06 07:14:00;;;;;;;;;;;3.30;99.90;;;;;;5051766;28;20533;-78
2021/12/06 07:16:27;;;;;;;7.85;4.25;;;3.30;99.90;;;;;;5050925;28;20007;-78
2021/12/06 07:18:52;;;;;;;6.10;3.90;;;3.40;99.90;;;;;;5051120;28;20501;-76
2021/12/06 07:21:18;;;;;;;;;;;3.40;99.90;;;;;;5053065;28;20072;-78
2021/12/06 07:23:44;;;;;;;13.10;4.35;;;3.40;99.90;;;;;;5052684;28;19950;-77
2021/12/06 07:26:13;;;;;;;;;;;3.40;99.90;;;;;;5052762;28;20432;-77
2021/12/06 07:28:40;;;;;;;18.67;7.32;;;3.40;99.90;;;;;;5051791;28;19916;-77
2021/12/06 07:31:06;;;;;;;11.15;5.72;;;3.40;99.90;;;;;;5050853;28;20025;-78
2021/12/06 07:33:36;;;;;;;12.45;7.93;;;3.40;99.90;;;;;;5057185;28;20021;-78
2021/12/06 07:36:03;;;;;;;14.90;7.82;;;3.50;99.90;;;;;;5051461;28;20021;-78
2021/12/06 07:38:29;;;;;;;13.80;7.60;;;3.50;99.90;;;;;;5053711;28;20025;-78
2021/12/06 07:40:55;;;;;;;;;;;3.50;99.90;;;;;;5052039;28;20116;-77
2021/12/06 07:43:21;;;;;;;10.68;6.47;;;3.50;99.90;;;;;;5052498;28;20015;-77
2021/12/06 07:45:47;;;;;;;;;;;3.50;99.90;;;;;;5051475;28;20045;-76
2021/12/06 07:48:14;;;;;;;14.07;6.38;;;3.50;99.90;;;;;;5050830;28;19913;-76
2021/12/06 07:50:40;;;;;;;10.68;5.88;;;3.40;99.90;;;;;;5050517;28;20485;-78
2021/12/06 07:53:06;;;;;;;;;;;3.50;99.90;;;;;;5052922;28;20025;-78
2021/12/06 07:55:34;;;;;;;10.55;6.13;;;3.50;99.90;;;;;;5050104;28;19905;-77
2021/12/06 07:58:04;;;;;;;10.60;7.30;;;3.50;99.90;;;;;;5050827;28;20098;-78
2021/12/06 08:00:33;;;;;;;12.73;7.30;;;3.50;99.90;;;;;;5050799;28;20417;-77
2021/12/06 08:02:59;;;;;;;14.57;9.38;;;3.50;99.90;;;;;;5050544;28;20087;-77
2021/12/06 08:05:33;;;;;;;;;;;3.60;99.90;;;;;;5052518;28;20040;-78
2021/12/06 08:08:15;;;;;;;21.75;14.00;;;3.60;99.90;;;;;;5051370;28;19940;-77
2021/12/06 08:10:54;;;;;;;30.27;19.02;;;3.70;99.90;;;;;;5050065;28;20175;-77
2021/12/06 08:13:23;;;;;;;18.42;12.57;;;3.80;99.90;;;;;;5049676;28;20103;-77
2021/12/06 08:15:52;;;;;;;22.13;12.95;;;3.90;99.90;;;;;;5050987;28;20508;-77
2021/12/06 08:18:18;;;;;;;23.27;12.60;;;4.00;99.90;;;;;;5048777;28;20029;-77
2021/12/06 08:20:44;;;;;;;26.92;15.15;;;4.20;99.90;;;;;;5050081;28;20814;-77
2021/12/06 08:23:10;;;;;;;;;;;4.30;99.90;;;;;;5050069;28;20035;-77
2021/12/06 08:25:36;;;;;;;19.13;12.07;;;4.40;99.90;;;;;;5051176;28;19924;-77
2021/12/06 08:28:03;;;;;;;14.10;7.97;;;4.60;99.90;;;;;;5050093;28;20052;-77
2021/12/06 08:30:29;;;;;;;11.38;7.45;;;4.60;99.90;;;;;;5051714;28;20040;-78
2021/12/06 08:32:56;;;;;;;;;;;4.70;99.90;;;;;;5050777;28;20025;-78
2021/12/06 08:35:22;;;;;;;8.32;4.97;;;4.70;99.90;;;;;;5051151;28;20371;-79
2021/12/06 08:37:48;;;;;;;;;;;4.70;99.90;;;;;;5052987;28;20113;-78
2021/12/06 08:40:16;;;;;;;10.00;5.25;;;4.80;99.90;;;;;;5051782;28;19915;-77
2021/12/06 08:42:42;;;;;;;6.65;4.18;;;4.80;99.90;;;;;;5051521;28;20035;-77
2021/12/06 08:45:08;;;;;;;;;;;4.80;99.90;;;;;;5050450;28;20036;-77
2021/12/06 08:47:34;;;;;;;15.38;8.77;;;4.80;99.90;;;;;;5050105;28;19908;-78
2021/12/06 08:50:00;;;;;;;;;;;4.80;99.90;;;;;;5051100;28;20040;-77
2021/12/06 08:52:25;;;;;;;13.68;8.70;;;4.80;99.90;;;;;;5052580;28;19915;-78
2021/12/06 08:54:51;;;;;;;;;;;4.80;99.90;;;;;;5052070;28;20048;-77
2021/12/06 08:57:16;;;;;;;10.07;5.85;;;4.70;99.90;;;;;;5051578;28;19963;-77
2021/12/06 08:59:42;;;;;;;;;;;4.70;99.90;;;;;;5050651;28;20128;-77
2021/12/06 09:02:08;;;;;;;14.23;5.72;;;4.70;99.90;;;;;;5051853;28;19924;-78
2021/12/06 09:04:37;;;;;;;;;;;4.70;99.90;;;;;;5052429;28;20024;-78
2021/12/06 09:07:11;;;;;;;10.13;6.32;;;4.80;99.90;;;;;;5051285;28;20313;-77
2021/12/06 09:09:45;;;;;;;12.57;8.13;;;4.80;99.90;;;;;;5050083;28;20028;-78
2021/12/06 09:12:11;;;;;;;17.13;12.38;;;4.70;99.90;;;;;;5051459;28;20422;-77
2021/12/06 09:14:38;;;;;;;14.35;9.07;;;4.70;99.90;;;;;;5050939;28;20559;-78
2021/12/06 09:17:05;;;;;;;12.02;5.68;;;4.60;99.90;;;;;;5051815;28;20082;-78
2021/12/06 09:19:30;;;;;;;;;;;4.60;99.90;;;;;;5053584;28;20526;-77
2021/12/06 09:21:56;;;;;;;7.65;5.82;;;4.60;99.90;;;;;;5053611;28;19908;-77
2021/12/06 09:24:21;;;;;;;;;;;4.60;99.90;;;;;;5051511;28;20029;-78
2021/12/06 09:26:48;;;;;;;8.98;5.57;;;4.60;99.90;;;;;;5051096;28;19913;-78
2021/12/06 09:29:14;;;;;;;8.50;5.95;;;4.70;99.90;;;;;;5051173;28;20031;-78
2021/12/06 09:31:40;;;;;;;;;;;4.70;99.90;;;;;;5050539;28;20063;-78
2021/12/06 09:34:05;;;;;;;7.05;4.88;;;4.80;99.90;;;;;;5050466;28;19940;-79
2021/12/06 09:36:33;;;;;;;7.03;4.88;;;4.90;99.90;;;;;;5049650;28;20025;-78
2021/12/06 09:38:59;;;;;;;9.00;5.43;;;5.00;99.90;;;;;;5050996;28;20082;-78
2021/12/06 09:41:27;;;;;;;15.35;8.15;;;5.10;99.90;;;;;;5049914;28;20036;-78
2021/12/06 09:43:57;;;;;;;14.48;8.80;;;5.30;99.90;;;;;;5052734;28;20025;-77
2021/12/06 09:46:23;;;;;;;18.75;9.43;;;5.40;99.90;;;;;;5054129;28;20025;-78
2021/12/06 09:48:50;;;;;;;12.27;8.32;;;5.60;99.90;;;;;;5050276;28;20056;-78
2021/12/06 09:51:21;;;;;;;11.38;7.07;;;5.80;99.90;;;;;;5048985;28;20179;-78
2021/12/06 09:53:47;;;;;;;12.90;6.93;;;5.80;99.90;;;;;;5049383;28;20406;-78
2021/12/06 09:56:18;;;;;;;8.43;5.47;;;5.90;99.90;;;;;;5050643;28;20021;-78
2021/12/06 09:58:44;;;;;;;8.82;5.10;;;6.00;99.90;;;;;;5049538;28;20120;-78
2021/12/06 10:01:15;;;;;;;10.05;5.63;;;6.00;99.90;;;;;;5049814;28;20041;-76
2021/12/06 10:03:46;;;;;;;12.10;6.57;;;5.90;99.90;;;;;;5049007;28;20080;-78
2021/12/06 10:06:12;;;;;;;11.23;6.18;;;5.90;99.90;;;;;;5048484;28;20036;-78
2021/12/06 10:08:39;;;;;;;;;;;5.80;99.90;;;;;;5051093;28;20036;-78
2021/12/06 10:11:07;;;;;;;9.85;6.03;;;5.80;99.90;;;;;;5049134;28;19905;-78
2021/12/06 10:13:33;;;;;;;7.20;5.15;;;5.80;99.90;;;;;;5050318;28;20108;-77
2021/12/06 10:15:59;;;;;;;7.93;5.07;;;5.70;99.90;;;;;;5050327;28;20032;-77
2021/12/06 10:18:25;;;;;;;;;;;5.60;99.90;;;;;;5048772;28;20028;-77
2021/12/06 10:20:51;;;;;;;8.32;4.93;;;5.70;99.90;;;;;;5049829;28;20339;-77
2021/12/06 10:23:17;;;;;;;;;;;5.60;99.90;;;;;;5049082;28;20530;-78
2021/12/06 10:25:47;;;;;;;10.45;6.90;;;5.60;99.90;;;;;;5048173;28;19923;-76
2021/12/06 10:28:14;;;;;;;9.60;6.90;;;5.60;99.90;;;;;;5048816;28;20069;-77
2021/12/06 10:30:48;;;;;;;8.63;6.78;;;5.70;99.90;;;;;;5048565;28;20119;-77
2021/12/06 10:33:23;;;;;;;10.48;7.50;;;5.70;99.90;;;;;;5047580;28;20059;-79
2021/12/06 10:35:52;;;;;;;8.70;6.75;;;5.80;99.90;;;;;;5048254;28;20106;-79
2021/12/06 10:38:23;;;;;;;10.07;7.30;;;5.80;99.90;;;;;;5049670;28;20056;-78
2021/12/06 10:40:54;;;;;;;10.20;7.32;;;5.80;99.90;;;;;;5048767;28;20033;-78
2021/12/06 10:43:20;;;;;;;11.52;6.50;;;5.80;99.90;;;;;;5054040;28;20049;-78
2021/12/06 10:45:50;;;;;;;;;;;5.80;99.90;;;;;;5054191;28;20069;-78
2021/12/06 10:48:28;;;;;;;6.95;3.75;;;5.70;99.90;;;;;;5051662;28;19904;-78
2021/12/06 10:50:53;;;;;;;5.55;2.67;;;5.80;99.90;;;;;;5053264;28;20024;-78
2021/12/06 10:53:42;;;;;;;;;;;5.70;99.90;;;;;;5053360;28;20400;-78
2021/12/06 10:56:22;;;;;;;8.57;4.55;;;5.70;99.90;;;;;;5051743;28;19915;-78
2021/12/06 10:58:50;;;;;;;6.65;3.53;;;5.70;99.90;;;;;;5050672;28;20123;-78
2021/12/06 11:01:19;;;;;;;5.28;3.30;;;5.60;99.90;;;;;;5052174;28;20432;-78
2021/12/06 11:03:54;;;;;;;7.10;4.13;;;5.60;99.90;;;;;;5051373;28;20029;-77
2021/12/06 11:06:25;;;;;;;5.25;3.58;;;5.50;99.90;;;;;;5052963;28;20124;-78
2021/12/06 11:08:56;;;;;;;2.92;1.83;;;5.50;99.90;;;;;;5051372;28;20111;-78
2021/12/06 11:11:29;;;;;;;5.50;2.70;;;5.70;99.90;;;;;;5052132;28;20025;-79
2021/12/06 11:14:01;;;;;;;5.10;3.33;;;5.60;99.90;;;;;;5051852;28;20103;-77
2021/12/06 11:16:39;;;;;;;5.45;2.92;;;5.50;99.90;;;;;;5052399;28;20179;-78
2021/12/06 11:19:14;;;;;;;7.32;3.80;;;5.40;99.90;;;;;;5052438;28;20104;-77
2021/12/06 11:21:44;;;;;;;5.80;2.92;;;5.40;99.90;;;;;;5051313;28;20074;-77
2021/12/06 11:24:32;;;;;;;7.55;3.33;;;5.40;99.90;;;;;;5052761;28;20025;-78
2021/12/06 11:27:04;;;;;;;7.95;4.35;;;5.40;99.90;;;;;;5052101;28;20037;-78
2021/12/06 11:29:32;;;;;;;4.90;3.00;;;5.40;99.90;;;;;;5053845;28;20017;-79
2021/12/06 11:32:19;;;;;;;5.15;3.35;;;5.40;99.90;;;;;;5052283;28;20401;-78
2021/12/06 11:34:48;;;;;;;6.97;4.60;;;5.50;99.90;;;;;;5051875;28;20056;-78
2021/12/06 11:37:24;;;;;;;10.82;6.47;;;5.50;99.90;;;;;;5053147;28;20039;-78
2021/12/06 11:40:00;;;;;;;48.47;21.83;;;5.40;99.90;;;;;;5052750;28;20117;-78
2021/12/06 11:42:26;;;;;;;13.13;7.97;;;5.50;99.90;;;;;;5052955;28;20490;-78
2021/12/06 11:44:52;;;;;;;19.27;15.52;;;5.50;99.90;;;;;;5052218;28;20033;-76
2021/12/06 11:47:19;;;;;;;;;;;5.50;99.90;;;;;;5054741;28;20044;-78
2021/12/06 11:49:51;;;;;;;27.77;23.90;;;5.40;99.90;;;;;;5052593;28;19904;-77
2021/12/06 11:52:23;;;;;;;11.70;8.50;;;5.40;99.90;;;;;;5054455;28;20051;-78
2021/12/06 11:54:51;;;;;;;10.23;7.10;;;5.30;99.90;;;;;;5053176;28;20603;-78
2021/12/06 11:57:21;;;;;;;17.88;10.05;;;5.30;99.90;;;;;;5054876;28;20029;-78
2021/12/06 11:59:51;;;;;;;17.73;11.93;;;5.30;99.90;;;;;;5055302;28;20098;-77
2021/12/06 12:02:42;;;;;;;14.07;10.25;;;5.40;99.90;;;;;;5053324;28;20143;-77
2021/12/06 12:05:34;;;;;;;11.98;8.15;;;5.50;99.90;;;;;;5054075;28;20421;-78
2021/12/06 12:08:00;;;;;;;10.90;7.80;;;5.50;99.90;;;;;;5052849;28;20021;-78
2021/12/06 12:10:49;;;;;;;;;;;5.60;99.90;;;;;;5052369;28;20082;-77
2021/12/06 12:13:24;;;;;;;14.77;9.75;;;5.60;99.90;;;;;;5053439;28;19908;-78
2021/12/06 12:15:58;;;;;;;9.45;5.07;;;5.60;99.90;;;;;;5052435;28;20318;-78
2021/12/06 12:18:24;;;;;;;10.05;5.85;;;5.50;99.90;;;;;;5052748;28;20036;-77
2021/12/06 12:20:53;;;;;;;7.45;4.38;;;5.60;99.90;;;;;;5052945;28;20029;-78
2021/12/06 12:23:19;;;;;;;8.45;4.93;;;5.50;99.90;;;;;;5052851;28;20079;-77
2021/12/06 12:26:01;;;;;;;6.32;4.80;;;5.50;99.90;;;;;;5053330;28;20077;-78
2021/12/06 12:28:39;;;;;;;8.15;4.80;;;5.50;99.90;;;;;;5055116;28;20071;-78
2021/12/06 12:31:09;;;;;;;6.70;4.32;;;5.50;99.90;;;;;;5056986;28;20055;-78
2021/12/06 12:33:35;;;;;;;5.45;3.60;;;5.50;99.90;;;;;;5062952;28;20041;-78
2021/12/06 12:36:07;;;;;;;5.07;2.75;;;5.60;99.90;;;;;;5061357;28;20032;-78
2021/12/06 12:38:35;;;;;;;13.00;5.78;;;5.50;99.90;;;;;;5052043;28;20032;-78
2021/12/06 12:41:05;;;;;;;5.03;3.10;;;5.60;99.90;;;;;;5052659;28;20162;-78
2021/12/06 12:43:46;;;;;;;7.80;3.08;;;5.50;99.90;;;;;;5053501;28;20067;-79
2021/12/06 12:46:31;;;;;;;5.78;3.00;;;5.50;99.90;;;;;;5050551;28;20037;-77
2021/12/06 12:48:59;;;;;;;5.93;2.42;;;5.40;99.90;;;;;;5052470;28;20609;-77
2021/12/06 12:51:31;;;;;;;4.25;2.40;;;5.40;99.90;;;;;;5050686;28;20123;-77
2021/12/06 12:54:29;;;;;;;5.32;3.05;;;5.30;99.90;;;;;;5052736;28;20059;-78
2021/12/06 12:57:02;;;;;;;5.57;3.05;;;5.20;99.90;;;;;;5049635;28;20060;-78
2021/12/06 12:59:35;;;;;;;8.52;3.15;;;5.20;99.90;;;;;;5054437;28;20029;-79
2021/12/06 13:02:34;;;;;;;6.03;3.20;;;5.20;99.90;;;;;;5056052;28;20056;-78
2021/12/06 13:05:00;;;;;;;9.98;5.32;;;5.10;99.90;;;;;;5054535;28;20549;-79
2021/12/06 13:07:30;;;;;;;;;;;5.20;99.90;;;;;;5058687;28;20025;-79
2021/12/06 13:09:57;;;;;;;7.57;4.95;;;5.20;99.90;;;;;;5050302;28;19958;-80
2021/12/06 13:12:27;;;;;;;7.47;4.38;;;5.20;99.90;;;;;;5052018;28;20033;-77
2021/12/06 13:14:59;;;;;;;4.10;3.03;;;5.30;99.90;;;;;;5053897;28;20040;-79
2021/12/06 13:20:13;;;;;;;8.80;5.18;;;5.20;99.90;;;;;;5055098;28;20017;-77
2021/12/06 13:22:46;;;;;;;11.02;5.72;;;5.20;99.90;;;;;;5045567;28;20029;-78
2021/12/06 13:25:15;;;;;;;15.40;8.15;;;5.20;99.90;;;;;;5043453;28;20088;-77
2021/12/06 13:27:43;;;;;;;14.48;10.15;;;5.20;99.90;;;;;;5040529;28;20101;-77
2021/12/06 13:30:36;;;;;;;14.05;9.07;;;5.10;99.90;;;;;;5041738;28;20032;-77
2021/12/06 13:33:05;;;;;;;15.52;9.43;;;5.10;99.90;;;;;;5053699;28;20048;-79
2021/12/06 13:35:45;;;;;;;50.47;31.45;;;5.10;99.90;;;;;;5037594;28;20548;-77